Time;durP1;ratioP1;P1;durP2;ratioP2;P2;SDS_P1;SDS_P2;PMS_P1;PMS_P2;Temp;Humidity;BMP_temperature;BMP_pressure;BME280_temperature;BME280_humidity;BME280_pressure;Samples;Min_cycle;Max_cycle;Signal;HPM_P1;HPM_P2
2023/07/12 00:00:50;;;;;;;;;1.50;1.50;;;;;24.53;53.87;100459.69;5095223;27;45950;-78
2023/07/12 00:03:17;;;;;;;;;2.75;2.75;;;;;24.67;53.49;100479.84;5096407;27;46118;-79
2023/07/12 00:05:43;;;;;;;;;4.50;2.00;;;;;24.67;53.12;100477.97;5098910;27;45167;-78
2023/07/12 00:08:36;;;;;;;;;4.00;2.50;;;;;24.76;53.48;100494.25;5099117;27;45308;-78
2023/07/12 00:11:02;;;;;;;;;4.25;3.25;;;;;24.69;53.46;100484.06;5090867;27;45521;-78
2023/07/12 00:13:27;;;;;;;;;2.00;2.00;;;;;24.69;53.58;100494.94;5086116;27;45356;-78
2023/07/12 00:15:53;;;;;;;;;3.50;3.00;;;;;24.67;53.63;100491.56;5127802;27;45344;-78
2023/07/12 00:18:24;;;;;;;;;3.00;3.00;;;;;24.68;53.80;100486.97;5098687;27;45399;-78
2023/07/12 00:20:51;;;;;;;;;2.50;2.50;;;;;24.69;53.65;100491.38;5098025;27;45562;-78
2023/07/12 00:23:18;;;;;;;;;2.00;2.00;;;;;24.49;53.88;100471.97;5093837;27;45562;-77
2023/07/12 00:25:45;;;;;;;;;2.80;2.80;;;;;24.58;53.83;100498.06;5081559;27;45398;-78
2023/07/12 00:28:26;;;;;;;;;2.50;1.75;;;;;24.47;53.93;100487.59;5098840;27;45385;-79
2023/07/12 00:30:54;;;;;;;;;3.00;3.00;;;;;24.45;54.18;100495.09;5097394;27;45955;-79
2023/07/12 00:33:20;;;;;;;;;1.75;1.00;;;;;24.52;54.10;100498.78;5089184;27;45271;-78
2023/07/12 00:35:47;;;;;;;;;2.60;1.00;;;;;24.40;54.15;100490.19;5077960;27;45503;-78
2023/07/12 00:38:19;;;;;;;;;0.50;0.50;;;;;24.52;53.95;100501.50;5077680;27;45329;-78
2023/07/12 00:40:53;;;;;;;;;1.00;1.00;;;;;24.46;54.23;100476.91;5097421;27;45383;-79
2023/07/12 00:43:24;;;;;;;;;1.00;1.00;;;;;24.45;54.29;100486.94;5098319;27;47727;-78
2023/07/12 00:45:52;;;;;;;;;2.50;2.25;;;;;24.38;54.15;100492.25;5098334;27;45308;-78
2023/07/12 00:48:19;;;;;;;;;4.00;4.00;;;;;24.39;54.15;100506.69;5097497;27;45232;-78
2023/07/12 00:50:46;;;;;;;;;2.00;2.00;;;;;24.39;54.21;100496.66;5097913;27;45634;-78
2023/07/12 00:53:25;;;;;;;;;2.00;2.00;;;;;24.45;54.63;100502.41;5097020;27;46274;-78
2023/07/12 00:56:09;;;;;;;;;2.00;2.00;;;;;24.45;54.37;100503.25;5098183;27;45309;-78
2023/07/12 00:58:41;;;;;;;;;2.50;2.00;;;;;24.42;54.16;100496.28;5095154;27;45407;-78
2023/07/12 01:01:08;;;;;;;;;2.50;2.50;;;;;24.53;54.44;100511.38;5098517;27;45456;-78
2023/07/12 01:03:37;;;;;;;;;3.50;1.75;;;;;24.54;54.20;100506.78;5095778;27;47169;-77
2023/07/12 01:06:05;;;;;;;;;2.00;2.00;;;;;24.50;54.54;100509.00;5098313;27;45392;-78
2023/07/12 01:08:31;;;;;;;;;1.75;1.75;;;;;24.52;54.28;100504.22;5097667;27;45356;-78
2023/07/12 01:10:59;;;;;;;;;1.75;1.75;;;;;24.53;54.28;100505.94;5098134;27;45496;-78
2023/07/12 01:13:24;;;;;;;;;2.00;2.00;;;;;24.56;54.49;100505.56;5095620;27;46096;-78
2023/07/12 01:15:51;;;;;;;;;2.25;1.50;;;;;24.52;54.63;100493.34;5077310;27;45394;-78
2023/07/12 01:18:17;;;;;;;;;2.75;2.75;;;;;24.59;54.09;100509.78;5089339;27;45253;-78
2023/07/12 01:20:43;;;;;;;;;2.25;2.25;;;;;24.58;54.19;100514.38;5098098;27;45565;-77
2023/07/12 01:23:09;;;;;;;;;1.50;1.50;;;;;24.50;53.58;100506.28;5097604;27;45339;-78
2023/07/12 01:25:38;;;;;;;;;3.75;2.00;;;;;24.45;54.18;100511.41;5097088;27;45574;-79
2023/07/12 01:28:04;;;;;;;;;2.00;2.00;;;;;24.39;54.41;100525.72;5097008;27;45409;-78
2023/07/12 01:30:31;;;;;;;;;1.00;1.00;;;;;23.92;54.45;100491.22;5097939;27;45565;-78
2023/07/12 01:32:56;;;;;;;;;1.25;1.25;;;;;24.02;54.86;100532.59;5097314;27;48161;-78
2023/07/12 01:35:21;;;;;;;;;1.50;1.50;;;;;23.78;54.76;100516.38;5096893;27;45258;-78
2023/07/12 01:37:47;;;;;;;;;1.00;1.00;;;;;23.73;54.59;100525.03;5096863;27;45268;-77
2023/07/12 01:40:12;;;;;;;;;3.00;1.00;;;;;23.60;55.88;100529.31;5097109;27;45402;-78
2023/07/12 01:42:38;;;;;;;;;1.00;1.00;;;;;23.45;55.92;100535.41;5097292;27;45647;-78
2023/07/12 01:45:03;;;;;;;;;2.00;2.00;;;;;23.44;56.08;100538.28;5097706;27;45238;-78
2023/07/12 01:47:30;;;;;;;;;2.00;1.00;;;;;23.42;55.68;100546.56;5083722;27;45342;-76
2023/07/12 01:49:55;;;;;;;;;0.50;0.50;;;;;23.42;55.23;100541.16;5085263;27;45531;-78
2023/07/12 01:52:21;;;;;;;;;1.00;1.00;;;;;23.25;56.11;100531.31;5075234;28;45811;-78
2023/07/12 01:54:46;;;;;;;;;0.50;0.50;;;;;23.17;56.48;100542.16;5076612;28;45428;-78
2023/07/12 01:57:11;;;;;;;;;0.50;0.50;;;;;22.91;56.77;100516.03;5093820;27;45266;-78
2023/07/12 01:59:36;;;;;;;;;0.50;0.50;;;;;23.06;56.18;100531.66;5077175;27;45474;-77
2023/07/12 02:02:02;;;;;;;;;0.75;0.75;;;;;23.10;56.41;100542.00;5076591;28;46145;-77
2023/07/12 02:04:28;;;;;;;;;0.25;0.25;;;;;23.17;55.72;100542.16;5082291;27;45473;-78
2023/07/12 02:06:53;;;;;;;;;0.75;0.00;;;;;23.06;55.55;100542.50;5095457;27;51569;-78
2023/07/12 02:09:18;;;;;;;;;0.00;0.00;;;;;23.05;56.20;100551.63;5092020;27;45389;-78
2023/07/12 02:11:44;;;;;;;;;0.00;0.00;;;;;23.05;56.28;100548.94;5074927;28;57527;-78
2023/07/12 02:14:09;;;;;;;;;0.00;0.00;;;;;23.06;55.32;100542.50;5076308;27;45506;-77
2023/07/12 02:16:34;;;;;;;;;0.00;0.00;;;;;23.13;55.10;100554.38;5096018;27;56813;-77
2023/07/12 02:19:00;;;;;;;;;0.25;0.25;;;;;23.15;55.43;100560.47;5093160;27;45623;-77
2023/07/12 02:21:25;;;;;;;;;0.00;0.00;;;;;23.12;55.74;100564.38;5074765;28;56570;-77
2023/07/12 02:23:52;;;;;;;;;0.00;0.00;;;;;23.09;55.76;100564.72;5075731;28;62452;-77
2023/07/12 02:26:18;;;;;;;;;1.00;0.00;;;;;22.87;56.46;100560.78;5093698;27;45327;-77
2023/07/12 02:28:43;;;;;;;;;1.00;1.00;;;;;22.76;56.24;100543.94;5097066;27;45574;-77
2023/07/12 02:31:19;;;;;;;;;0.00;0.00;;;;;22.83;56.52;100564.84;5085780;27;48495;-76
2023/07/12 02:33:45;;;;;;;;;0.00;0.00;;;;;22.73;56.52;100549.69;5086231;27;45481;-78
2023/07/12 02:36:10;;;;;;;;;0.00;0.00;;;;;22.76;56.30;100566.47;5096308;27;45356;-78
2023/07/12 02:38:36;;;;;;;;;0.75;0.75;;;;;22.56;56.69;100546.09;5096662;27;45488;-78
2023/07/12 02:41:01;;;;;;;;;0.75;0.75;;;;;22.66;57.04;100565.78;5094747;27;46169;-78
2023/07/12 02:43:26;;;;;;;;;0.00;0.00;;;;;22.57;56.61;100566.75;5096545;27;45430;-78
2023/07/12 02:45:52;;;;;;;;;0.75;0.75;;;;;22.60;57.00;100564.56;5091543;27;57588;-77
2023/07/12 02:48:17;;;;;;;;;0.75;0.75;;;;;22.58;56.83;100560.31;5096333;27;51260;-78
2023/07/12 02:50:42;;;;;;;;;0.50;0.50;;;;;22.58;56.60;100582.00;5096671;27;45384;-78
2023/07/12 02:53:19;;;;;;;;;0.00;0.00;;;;;22.60;56.27;100591.66;5095609;27;45702;-77
2023/07/12 02:55:48;;;;;;;;;0.50;0.00;;;;;22.41;56.64;100564.00;5083886;27;45325;-78
2023/07/12 02:58:13;;;;;;;;;4.25;3.00;;;;;22.57;56.90;100597.44;5075834;27;45676;-77
2023/07/12 03:00:39;;;;;;;;;3.00;1.00;;;;;22.53;56.67;100584.38;5076043;27;51381;-77
2023/07/12 03:03:05;;;;;;;;;0.00;0.00;;;;;22.42;56.55;100585.50;5086709;27;45325;-77
2023/07/12 03:05:33;;;;;;;;;0.75;0.75;;;;;22.36;56.81;100592.41;5089184;27;45212;-77
2023/07/12 03:07:59;;;;;;;;;1.75;1.75;;;;;22.43;56.73;100592.63;5079562;27;45489;-77
2023/07/12 03:10:24;;;;;;;;;1.00;1.00;;;;;22.40;56.87;100592.97;5079274;27;45462;-77
2023/07/12 03:12:49;;;;;;;;;1.00;1.00;;;;;22.33;57.12;100600.88;5079441;27;45445;-77
2023/07/12 03:15:15;;;;;;;;;0.50;0.50;;;;;22.14;57.22;100601.13;5078822;27;45439;-77
2023/07/12 03:17:40;;;;;;;;;3.75;1.50;;;;;22.06;57.77;100598.34;5078515;28;45458;-77
2023/07/12 03:20:06;;;;;;;;;0.00;0.00;;;;;21.97;56.71;100585.72;5079340;27;46295;-78
2023/07/12 03:22:31;;;;;;;;;2.00;1.00;;;;;21.96;56.22;100608.41;5098037;27;45390;-78
2023/07/12 03:24:56;;;;;;;;;1.00;1.00;;;;;21.93;55.90;100611.44;5094906;27;45416;-76
2023/07/12 03:27:22;;;;;;;;;2.33;0.67;;;;;21.85;56.16;100608.66;5095107;27;45229;-77
2023/07/12 03:29:47;;;;;;;;;0.25;0.00;;;;;21.76;55.83;100592.38;5099377;27;45860;-77
2023/07/12 03:32:13;;;;;;;;;1.00;0.00;;;;;21.86;55.83;100618.47;5099358;27;45421;-77
2023/07/12 03:34:38;;;;;;;;;3.00;1.50;;;;;21.76;55.18;100602.34;5098641;27;45410;-78
2023/07/12 03:37:03;;;;;;;;;2.00;2.00;;;;;21.68;55.19;100600.41;5099450;27;45608;-77
2023/07/12 03:39:29;;;;;;;;;2.00;1.00;;;;;21.68;55.21;100611.25;5097172;27;45451;-77
2023/07/12 03:41:54;;;;;;;;;1.00;1.00;;;;;21.61;54.79;100588.50;5098061;27;45433;-77
2023/07/12 03:44:20;;;;;;;;;2.33;1.00;;;;;21.58;54.80;100591.53;5099300;27;45742;-77
2023/07/12 03:46:45;;;;;;;;;1.00;1.00;;;;;21.46;54.93;100576.56;5099625;27;45502;-77
2023/07/12 03:49:10;;;;;;;;;1.00;1.00;;;;;21.61;54.81;100610.16;5099430;27;45425;-77
2023/07/12 03:51:36;;;;;;;;;4.00;1.00;;;;;21.44;54.69;100597.50;5098073;27;45875;-76
2023/07/12 03:54:01;;;;;;;;;0.00;0.00;;;;;21.26;54.92;100581.31;5099091;27;45493;-78
2023/07/12 03:56:26;;;;;;;;;1.00;1.00;;;;;21.32;54.64;100609.56;5098120;27;45634;-78
2023/07/12 03:58:52;;;;;;;;;1.00;1.00;;;;;21.27;54.49;100615.47;5097376;27;47684;-77
2023/07/12 04:01:18;;;;;;;;;1.00;1.00;;;;;21.21;54.82;100619.56;5098955;27;45400;-77
2023/07/12 04:03:43;;;;;;;;;2.33;1.33;;;;;21.25;54.80;100622.88;5098640;27;45459;-77
2023/07/12 04:06:10;;;;;;;;;2.00;2.00;;;;;21.31;54.77;100640.34;5088169;27;45673;-77
2023/07/12 04:08:36;;;;;;;;;3.00;3.00;;;;;21.31;54.54;100633.06;5077859;27;47056;-77
2023/07/12 04:11:03;;;;;;;;;3.00;3.00;;;;;21.25;54.89;100631.00;5094879;27;45250;-77
2023/07/12 04:13:30;;;;;;;;;3.00;1.00;;;;;21.11;54.90;100623.38;5081821;27;45242;-77
2023/07/12 04:15:58;;;;;;;;;3.00;3.00;;;;;20.99;55.42;100628.16;5082551;27;45626;-76
2023/07/12 04:18:24;;;;;;;;;2.33;1.67;;;;;21.05;55.67;100638.34;5078247;27;46009;-76
2023/07/12 04:20:50;;;;;;;;;1.00;1.00;;;;;20.84;55.55;100617.00;5078206;27;45530;-77
2023/07/12 04:23:15;;;;;;;;;2.75;2.00;;;;;20.99;55.25;100647.09;5077994;27;45367;-76
2023/07/12 04:25:42;;;;;;;;;0.67;0.67;;;;;21.00;55.85;100642.53;5089599;27;45259;-77
2023/07/12 04:28:07;;;;;;;;;1.67;0.00;;;;;20.92;55.67;100635.16;5098503;27;45546;-77
2023/07/12 04:30:32;;;;;;;;;1.00;1.00;;;;;20.87;56.00;100642.88;5098696;27;45419;-76
2023/07/12 04:32:58;;;;;;;;;1.00;1.00;;;;;20.77;56.16;100647.47;5098660;27;45293;-76
2023/07/12 04:35:23;;;;;;;;;1.33;1.33;;;;;20.82;55.98;100661.38;5096233;27;45511;-76
2023/07/12 04:37:50;;;;;;;;;0.67;0.67;;;;;20.73;56.23;100640.69;5098287;27;49783;-77
2023/07/12 04:40:17;;;;;;;;;3.00;2.00;;;;;20.81;56.35;100665.09;5098784;27;45202;-76
2023/07/12 04:42:43;;;;;;;;;1.67;1.67;;;;;20.84;56.36;100667.53;5097827;27;45515;-76
2023/07/12 04:45:13;;;;;;;;;1.00;1.00;;;;;20.81;56.25;100671.34;5097981;27;45401;-76
2023/07/12 04:47:39;;;;;;;;;0.67;0.67;;;;;20.85;56.04;100680.03;5098098;27;46093;-76
2023/07/12 04:50:06;;;;;;;;;2.67;1.00;;;;;20.78;55.93;100662.69;5098005;27;45440;-77
2023/07/12 04:52:31;;;;;;;;;2.67;2.00;;;;;20.36;55.73;100587.50;5098246;27;45586;-77
2023/07/12 04:54:57;;;;;;;;;1.00;1.00;;;;;20.82;56.24;100683.00;5093887;27;45599;-76
2023/07/12 04:57:23;;;;;;;;;1.00;1.00;;;;;20.69;55.81;100663.59;5095503;27;46294;-78
2023/07/12 04:59:50;;;;;;;;;1.33;1.33;;;;;20.76;55.80;100680.91;5095465;27;45408;-77
2023/07/12 05:02:15;;;;;;;;;1.00;1.00;;;;;20.75;55.48;100671.13;5098348;27;45508;-76
2023/07/12 05:04:40;;;;;;;;;2.67;1.33;;;;;20.75;55.70;100665.72;5097961;27;45358;-76
2023/07/12 05:07:09;;;;;;;;;1.67;1.67;;;;;20.72;56.03;100672.28;5096549;27;57364;-76
2023/07/12 05:09:35;;;;;;;;;2.67;1.67;;;;;20.85;55.50;100680.03;5097333;27;45258;-77
2023/07/12 05:12:00;;;;;;;;;2.67;1.33;;;;;20.88;55.13;100693.25;5084068;27;45230;-77
2023/07/12 05:14:26;;;;;;;;;0.67;0.67;;;;;20.89;54.86;100694.94;5077507;27;45223;-77
2023/07/12 05:16:51;;;;;;;;;1.67;1.67;;;;;20.86;54.71;100704.22;5077349;27;45349;-77
2023/07/12 05:19:16;;;;;;;;;0.33;0.33;;;;;20.56;54.65;100672.88;5082122;27;52371;-78
2023/07/12 05:21:41;;;;;;;;;3.00;1.67;;;;;20.67;54.58;100706.13;5085126;27;45488;-77
2023/07/12 05:24:07;;;;;;;;;1.67;1.67;;;;;20.51;54.67;100707.59;5077518;27;45582;-76
2023/07/12 05:26:33;;;;;;;;;4.00;2.00;;;;;20.56;54.92;100728.78;5076617;27;45637;-76
2023/07/12 05:28:58;;;;;;;;;1.00;1.00;;;;;20.79;54.41;100726.56;5084797;27;45553;-76
2023/07/12 05:31:24;;;;;;;;;0.67;0.67;;;;;20.66;53.66;100677.41;5097335;27;45609;-76
2023/07/12 05:33:49;;;;;;;;;1.67;1.67;;;;;20.73;53.35;100648.78;5098036;27;45838;-77
2023/07/12 05:36:18;;;;;;;;;1.67;1.67;;;;;21.27;52.61;100703.88;5097800;27;45306;-75
2023/07/12 05:38:43;;;;;;;;;3.67;3.67;;;;;21.52;52.78;100724.78;5097939;27;45277;-76
2023/07/12 05:41:09;;;;;;;;;3.00;1.00;;;;;21.40;52.00;100694.38;5096215;27;45218;-76
2023/07/12 05:43:34;;;;;;;;;2.67;1.33;;;;;21.64;51.91;100723.53;5097466;27;45417;-80
2023/07/12 05:46:00;;;;;;;;;1.00;1.00;;;;;21.76;51.79;100733.16;5093159;27;46360;-79
2023/07/12 05:48:26;;;;;;;;;0.00;0.00;;;;;21.68;51.70;100740.31;5096631;27;45243;-80
2023/07/12 05:50:53;;;;;;;;;1.00;1.00;;;;;21.62;51.81;100744.50;5096617;27;46006;-78
2023/07/12 05:53:19;;;;;;;;;1.00;1.00;;;;;21.52;51.84;100726.63;5095910;27;45466;-79
2023/07/12 05:55:45;;;;;;;;;2.67;0.33;;;;;21.74;51.66;100745.97;5097236;27;46162;-78
2023/07/12 05:58:11;;;;;;;;;2.33;1.67;;;;;22.00;51.04;100743.31;5098549;27;45422;-78
2023/07/12 06:00:37;;;;;;;;;3.00;1.67;;;;;22.27;50.55;100745.13;5100166;27;45180;-79
2023/07/12 06:03:02;;;;;;;;;2.00;1.00;;;;;22.40;49.78;100735.69;5095411;27;45360;-79
2023/07/12 06:05:27;;;;;;;;;4.00;2.75;;;;;22.41;49.57;100738.28;5091977;27;46028;-78
2023/07/12 06:07:53;;;;;;;;;3.00;1.33;;;;;22.42;49.83;100744.53;5086252;27;45444;-78
2023/07/12 06:10:18;;;;;;;;;4.00;2.00;;;;;22.25;49.89;100728.16;5091517;27;45682;-79
2023/07/12 06:12:44;;;;;;;;;1.33;1.33;;;;;22.36;49.63;100749.56;5076229;27;45664;-80
2023/07/12 06:15:10;;;;;;;;;3.00;1.67;;;;;22.16;50.28;100753.50;5075754;27;46004;-79
2023/07/12 06:17:35;;;;;;;;;2.00;2.00;;;;;22.08;50.19;100756.13;5075143;27;45445;-79
2023/07/12 06:20:01;;;;;;;;;1.50;1.25;;;;;22.11;50.23;100766.63;5076458;27;45275;-78
2023/07/12 06:22:26;;;;;;;;;4.67;1.00;;;;;22.05;49.95;100742.88;5076638;27;45659;-80
2023/07/12 06:24:51;;;;;;;;;3.00;3.00;;;;;22.24;49.99;100761.66;5076651;27;46890;-80
2023/07/12 06:27:17;;;;;;;;;3.67;2.00;;;;;22.03;49.92;100770.13;5076222;27;45350;-80
2023/07/12 06:29:45;;;;;;;;;2.00;2.00;;;;;21.65;50.69;100768.56;5074879;28;45449;-79
2023/07/12 06:32:11;;;;;;;;;1.00;1.00;;;;;21.53;51.33;100744.56;5076486;27;45389;-80
2023/07/12 06:34:36;;;;;;;;;2.33;2.00;;;;;21.56;51.00;100766.75;5076512;28;45960;-79
2023/07/12 06:37:02;;;;;;;;;1.00;1.00;;;;;21.99;49.92;100744.31;5076240;27;45310;-80
2023/07/12 06:39:27;;;;;;;;;4.00;3.00;;;;;22.16;49.50;100769.75;5078180;27;45227;-80
2023/07/12 06:41:52;;;;;;;;;2.67;2.33;;;;;22.15;49.88;100773.47;5080434;28;45229;-79
2023/07/12 06:44:18;;;;;;;;;2.00;2.00;;;;;22.06;49.86;100772.53;5079868;27;45879;-79
2023/07/12 06:46:43;;;;;;;;;2.00;2.00;;;;;21.91;49.90;100774.06;5079522;27;45335;-80
2023/07/12 06:49:10;;;;;;;;;2.00;2.00;;;;;21.89;50.28;100762.53;5078287;27;45352;-79
2023/07/12 06:51:36;;;;;;;;;1.00;1.00;;;;;22.09;49.70;100787.63;5078617;27;45398;-81
2023/07/12 06:54:01;;;;;;;;;2.00;2.00;;;;;22.17;48.81;100785.00;5079408;27;45733;-79
2023/07/12 06:56:27;;;;;;;;;5.00;2.00;;;;;22.67;47.64;100778.94;5079510;27;45516;-80
2023/07/12 06:58:52;;;;;;;;;2.00;1.00;;;;;22.68;47.13;100794.19;5078211;27;45343;-80
2023/07/12 07:01:17;;;;;;;;;2.00;2.00;;;;;22.65;47.09;100770.09;5079576;27;45538;-79
2023/07/12 07:03:43;;;;;;;;;1.75;1.75;;;;;22.83;47.07;100773.63;5077887;27;48242;-78
2023/07/12 07:06:08;;;;;;;;;2.00;2.00;;;;;22.87;47.48;100799.41;5078531;27;65327;-79
2023/07/12 07:08:34;;;;;;;;;2.00;2.00;;;;;22.65;47.46;100764.66;5078383;27;45381;-80
2023/07/12 07:11:00;;;;;;;;;2.00;2.00;;;;;22.66;47.79;100782.66;5090649;27;45405;-76
2023/07/12 07:13:26;;;;;;;;;3.25;3.00;;;;;22.52;48.08;100796.75;5097817;27;45358;-78
2023/07/12 07:15:52;;;;;;;;;3.33;3.33;;;;;22.31;48.00;100784.44;5100094;27;45346;-80
2023/07/12 07:18:17;;;;;;;;;2.33;2.33;;;;;22.42;48.05;100798.75;5099840;27;45293;-80
2023/07/12 07:20:43;;;;;;;;;3.00;1.00;;;;;22.44;47.93;100792.16;5099991;27;45536;-79
2023/07/12 07:23:10;;;;;;;;;1.75;1.00;;;;;22.52;47.69;100791.34;5091961;27;46260;-76
2023/07/12 07:25:37;;;;;;;;;1.00;1.00;;;;;22.77;47.14;100798.63;5097297;27;45394;-74
2023/07/12 07:28:02;;;;;;;;;2.00;2.00;;;;;22.67;46.65;100777.06;5106420;27;45556;-75
2023/07/12 07:30:29;;;;;;;;;1.67;1.67;;;;;22.84;47.07;100799.75;5099987;27;45440;-76
2023/07/12 07:32:55;;;;;;;;;2.33;2.00;;;;;22.76;46.83;100802.34;5097811;27;45594;-75
2023/07/12 07:35:21;;;;;;;;;1.00;1.00;;;;;22.64;47.16;100806.34;5098135;27;45348;-76
2023/07/12 07:37:48;;;;;;;;;2.00;2.00;;;;;22.41;47.30;100803.31;5097020;27;45380;-76
2023/07/12 07:40:13;;;;;;;;;2.00;2.00;;;;;22.35;47.84;100803.94;5096954;27;45230;-75
2023/07/12 07:42:39;;;;;;;;;3.00;3.00;;;;;22.41;47.74;100802.47;5097878;27;45310;-74
2023/07/12 07:45:05;;;;;;;;;2.00;2.00;;;;;22.76;47.09;100812.34;5097999;27;45287;-76
2023/07/12 07:47:30;;;;;;;;;1.00;1.00;;;;;22.98;45.80;100789.31;5098179;27;45340;-78
2023/07/12 07:49:55;;;;;;;;;1.33;1.33;;;;;23.22;45.29;100813.84;5098157;27;45575;-76
2023/07/12 07:52:21;;;;;;;;;2.00;2.00;;;;;22.95;45.78;100807.59;5096935;27;47309;-76
2023/07/12 07:54:46;;;;;;;;;1.00;1.00;;;;;22.77;46.48;100803.22;5097074;27;59429;-77
2023/07/12 07:57:11;;;;;;;;;1.67;1.67;;;;;22.78;46.61;100805.75;5081765;27;45534;-76
2023/07/12 07:59:37;;;;;;;;;3.00;1.50;;;;;22.80;45.47;100798.34;5077358;27;45434;-75
2023/07/12 08:02:02;;;;;;;;;1.33;1.33;;;;;22.90;45.26;100814.50;5093552;27;45608;-76
2023/07/12 08:04:30;;;;;;;;;2.00;2.00;;;;;23.01;45.53;100811.53;5098160;27;45434;-76
2023/07/12 08:06:56;;;;;;;;;1.33;1.33;;;;;23.25;44.51;100814.38;5101638;27;45519;-76
2023/07/12 08:09:22;;;;;;;;;2.00;1.00;;;;;23.56;43.85;100816.50;5099396;27;45413;-76
2023/07/12 08:11:47;;;;;;;;;2.33;1.33;;;;;23.50;43.26;100823.47;5095808;27;47262;-75
2023/07/12 08:14:14;;;;;;;;;1.00;1.00;;;;;23.15;44.58;100815.50;5081199;27;45250;-75
2023/07/12 08:16:40;;;;;;;;;2.67;1.00;;;;;22.95;44.97;100829.31;5077335;27;45315;-73
2023/07/12 08:19:05;;;;;;;;;1.00;1.00;;;;;22.58;45.62;100798.84;5098080;27;45599;-76
2023/07/12 08:21:31;;;;;;;;;2.00;2.00;;;;;22.65;45.59;100816.16;5099917;27;45948;-77
2023/07/12 08:23:57;;;;;;;;;1.67;1.67;;;;;22.58;45.24;100826.81;5097195;27;45307;-77
2023/07/12 08:26:22;;;;;;;;;3.00;1.00;;;;;22.70;44.74;100824.69;5105782;27;45355;-76
2023/07/12 08:28:48;;;;;;;;;1.00;1.00;;;;;22.75;44.73;100819.63;5098065;27;45361;-76
2023/07/12 08:31:14;;;;;;;;;1.00;1.00;;;;;22.81;44.45;100824.44;5054686;27;1145548;-77
2023/07/12 08:33:41;;;;;;;;;2.33;1.33;;;;;22.87;44.70;100818.41;5097870;27;46027;-76
2023/07/12 08:36:07;;;;;;;;;2.25;2.25;;;;;22.98;44.27;100800.16;5098202;27;45314;-75
2023/07/12 08:38:32;;;;;;;;;0.00;0.00;;;;;23.07;43.04;100801.91;5094506;27;45589;-76
2023/07/12 08:40:58;;;;;;;;;0.75;0.50;;;;;23.10;42.53;100812.44;5098961;27;45302;-76
2023/07/12 08:43:32;;;;;;;;;2.00;1.00;;;;;22.98;42.81;100798.28;5097858;27;45278;-77
2023/07/12 08:46:13;;;;;;;;;1.00;1.00;;;;;23.17;42.65;100813.47;5097692;27;45417;-76
2023/07/12 08:48:38;;;;;;;;;1.00;1.00;;;;;23.37;42.63;100822.22;5100957;27;45443;-76
2023/07/12 08:51:26;;;;;;;;;1.00;0.00;;;;;23.61;42.11;100807.94;5097839;27;45650;-76
2023/07/12 08:53:52;;;;;;;;;1.00;1.00;;;;;23.79;42.02;100808.63;5097799;27;45523;-75
2023/07/12 08:56:19;;;;;;;;;1.00;1.00;;;;;23.89;41.85;100814.78;5098507;27;45401;-77
2023/07/12 08:58:50;;;;;;;;;3.50;1.00;;;;;23.98;41.35;100827.38;5096617;27;45414;-75
2023/07/12 09:01:36;;;;;;;;;1.50;1.50;;;;;24.13;41.98;100820.25;5076238;27;45363;-76
2023/07/12 09:04:26;;;;;;;;;3.50;2.75;;;;;24.29;41.39;100826.72;5083068;27;45379;-76
2023/07/12 09:06:57;;;;;;;;;2.00;2.00;;;;;24.54;40.74;100824.88;5098872;27;45364;-76
2023/07/12 09:09:23;;;;;;;;;2.00;1.25;;;;;24.51;40.67;100827.94;5102054;27;45358;-76
2023/07/12 09:11:48;;;;;;;;;2.25;1.00;;;;;24.28;41.30;100838.63;5097946;27;46089;-76
2023/07/12 09:14:18;;;;;;;;;3.00;0.50;;;;;24.25;40.89;100847.97;5097471;27;45404;-77
2023/07/12 09:16:49;;;;;;;;;1.00;1.00;;;;;24.32;40.86;100838.13;5098144;27;45383;-75
2023/07/12 09:19:18;;;;;;;;;0.00;0.00;;;;;24.02;40.07;100846.91;5098389;27;45286;-76
2023/07/12 09:21:47;;;;;;;;;1.25;1.25;;;;;23.78;40.81;100844.97;5093750;27;45364;-76
2023/07/12 09:24:18;;;;;;;;;1.75;1.75;;;;;23.89;40.80;100849.25;5095414;27;45354;-76
2023/07/12 09:26:44;;;;;;;;;2.25;1.50;;;;;23.89;40.83;100827.50;5086766;27;45519;-76
2023/07/12 09:29:21;;;;;;;;;2.25;2.25;;;;;24.04;40.49;100837.56;5097478;27;45451;-77
2023/07/12 09:31:47;;;;;;;;;0.00;0.00;;;;;24.25;40.07;100838.94;5096018;27;46131;-77
2023/07/12 09:34:34;;;;;;;;;2.00;1.00;;;;;24.09;40.79;100840.63;5096409;27;46107;-76
2023/07/12 09:37:00;;;;;;;;;2.75;2.75;;;;;24.13;40.20;100844.72;5096839;27;45371;-76
2023/07/12 09:39:26;;;;;;;;;2.75;1.50;;;;;24.09;40.65;100854.22;5097643;27;45222;-77
2023/07/12 09:42:01;;;;;;;;;1.00;1.00;;;;;24.09;40.21;100846.06;5091664;27;45245;-76
2023/07/12 09:44:27;;;;;;;;;2.00;2.00;;;;;24.05;39.84;100855.56;5114868;27;45304;-76
2023/07/12 09:47:14;;;;;;;;;1.00;1.00;;;;;24.15;39.52;100854.56;5094185;27;45523;-76
2023/07/12 09:50:13;;;;;;;;;3.00;1.25;;;;;24.43;39.85;100847.81;5088997;27;45447;-76
2023/07/12 09:52:59;;;;;;;;;2.00;2.00;;;;;24.54;39.35;100852.91;5081139;27;46277;-76
2023/07/12 09:56:09;;;;;;;;;1.00;1.00;;;;;24.42;38.41;100840.69;5085101;27;45490;-76
2023/07/12 09:58:48;;;;;;;;;0.00;0.00;;;;;24.21;36.97;100849.28;5034156;28;45372;-76
2023/07/12 10:01:29;;;;;;;;;0.50;0.50;;;;;23.98;37.92;100843.69;5031554;28;45300;-76
2023/07/12 10:03:57;;;;;;;;;1.00;1.00;;;;;24.02;38.11;100861.31;5061863;27;46351;-77
2023/07/12 10:06:32;;;;;;;;;5.00;1.00;;;;;23.98;38.48;100838.25;5093220;27;45718;-74
2023/07/12 10:09:09;;;;;;;;;5.00;3.00;;;;;24.23;38.40;100854.59;5097004;27;45278;-76
2023/07/12 10:11:44;;;;;;;;;2.50;1.25;;;;;24.42;38.53;100848.84;5095150;27;45454;-77
2023/07/12 10:14:14;;;;;;;;;1.00;1.00;;;;;24.52;38.41;100838.66;5076135;27;46394;-75
2023/07/12 10:16:54;;;;;;;;;2.00;2.00;;;;;24.70;37.10;100847.47;5086487;27;45544;-76
2023/07/12 10:19:29;;;;;;;;;2.75;2.75;;;;;24.89;36.41;100839.97;5097128;27;45821;-75
2023/07/12 10:22:00;;;;;;;;;4.50;3.25;;;;;25.14;35.99;100855.25;5096861;27;45484;-75
2023/07/12 10:24:48;;;;;;;;;0.75;0.75;;;;;25.41;35.95;100843.09;5096756;27;46292;-75
2023/07/12 10:27:28;;;;;;;;;2.00;2.00;;;;;25.54;35.40;100854.28;5096451;27;45356;-77
2023/07/12 10:30:02;;;;;;;;;5.75;3.00;;;;;25.67;35.26;100853.69;5078993;27;45421;-77
2023/07/12 10:32:35;;;;;;;;;1.75;1.75;;;;;25.52;34.93;100847.28;5106893;27;45412;-75
2023/07/12 10:35:31;;;;;;;;;2.25;1.00;;;;;25.23;35.71;100834.28;5095234;27;46310;-78
2023/07/12 10:38:01;;;;;;;;;1.75;1.75;;;;;24.94;35.64;100834.84;5114709;27;45395;-77
2023/07/12 10:40:35;;;;;;;;;1.00;1.00;;;;;24.74;35.36;100842.56;5116683;27;45465;-77
2023/07/12 10:43:07;;;;;;;;;5.25;1.00;;;;;24.80;35.96;100830.13;5108380;27;45334;-76
2023/07/12 10:45:37;;;;;;;;;4.25;1.50;;;;;24.83;35.17;100822.47;5087139;27;45414;-77
2023/07/12 10:48:04;;;;;;;;;3.75;3.75;;;;;24.94;35.67;100823.97;5096674;27;45266;-76
2023/07/12 10:50:43;;;;;;;;;5.50;2.00;;;;;25.20;35.29;100819.16;5094302;27;45279;-77
2023/07/12 10:53:15;;;;;;;;;4.00;2.25;;;;;25.58;34.82;100824.81;5096456;27;45492;-77
2023/07/12 10:55:48;;;;;;;;;1.00;1.00;;;;;25.80;33.99;100821.31;5096159;27;45243;-75
2023/07/12 10:58:43;;;;;;;;;1.00;0.50;;;;;25.88;33.57;100810.34;5096319;27;45287;-77
2023/07/12 11:01:47;;;;;;;;;0.00;0.00;;;;;26.01;33.31;100827.97;5096324;27;45299;-78
2023/07/12 11:04:17;;;;;;;;;1.00;1.00;;;;;26.13;33.50;100826.53;5090033;27;45441;-76
2023/07/12 11:07:01;;;;;;;;;1.25;1.25;;;;;26.03;34.27;100824.03;5075645;27;46014;-75
2023/07/12 11:09:47;;;;;;;;;0.50;0.50;;;;;25.85;34.57;100827.06;5075702;28;45262;-77
2023/07/12 11:12:15;;;;;;;;;3.00;2.00;;;;;26.00;34.80;100815.38;5094179;27;45389;-77
2023/07/12 11:14:43;;;;;;;;;3.75;0.75;;;;;26.29;34.64;100820.09;5096498;27;45343;-77
2023/07/12 11:17:09;;;;;;;;;0.75;0.75;;;;;26.51;33.49;100818.44;5109090;27;46260;-77
2023/07/12 11:19:40;;;;;;;;;2.00;1.00;;;;;26.68;33.25;100814.50;5112425;27;45315;-77
2023/07/12 11:22:48;;;;;;;;;1.50;1.50;;;;;26.89;31.97;100811.06;5095324;27;45278;-79
2023/07/12 11:25:31;;;;;;;;;1.00;1.00;;;;;27.08;32.20;100809.69;5093686;27;45403;-79
2023/07/12 11:28:03;;;;;;;;;0.50;0.50;;;;;27.26;29.74;100807.44;5089657;27;46051;-77
2023/07/12 11:30:39;;;;;;;;;1.00;0.80;;;;;27.56;30.51;100803.63;5098280;27;45758;-78